Time;durP1;ratioP1;P1;durP2;ratioP2;P2;SDS_P1;SDS_P2;PMS_P1;PMS_P2;Temp;Humidity;BMP_temperature;BMP_pressure;BME280_temperature;BME280_humidity;BME280_pressure;Samples;Min_cycle;Max_cycle;Signal;HPM_P1;HPM_P2
2022/10/03 00:01:44;;;;;;;45.90;12.48;;;;;;;22.79;49.46;101969.69;4191928;28;20074;-59
2022/10/03 00:04:24;;;;;;;45.95;12.43;;;;;;;22.74;49.79;101958.50;4185344;28;20041;-60
2022/10/03 00:06:42;;;;;;;40.05;11.48;;;;;;;22.80;49.42;101953.78;4168087;28;20455;-60
2022/10/03 00:09:08;;;;;;;46.53;12.02;;;;;;;22.78;49.50;101945.69;4190676;28;20053;-59
2022/10/03 00:11:19;;;;;;;;;;;;;;;22.80;49.55;101960.22;4188833;28;20368;-60
2022/10/03 00:13:34;;;;;;;38.55;11.77;;;;;;;22.86;49.48;101958.28;4189762;28;19924;-60
2022/10/03 00:15:52;;;;;;;42.53;10.98;;;;;;;22.81;49.47;101955.47;4191111;28;20045;-59
2022/10/03 00:18:15;;;;;;;41.97;10.77;;;;;;;22.86;49.47;101957.44;4206614;28;20082;-59
2022/10/03 00:20:41;;;;;;;38.25;10.60;;;;;;;22.81;49.19;101950.72;4184870;28;20049;-60
2022/10/03 00:22:59;;;;;;;38.13;11.45;;;;;;;22.81;49.11;101950.72;4197580;28;20491;-59
2022/10/03 00:25:33;;;;;;;36.13;10.02;;;;;;;22.78;49.66;101945.69;4185921;28;20125;-60
2022/10/03 00:27:54;;;;;;;33.28;9.82;;;;;;;22.74;49.36;101940.94;4191788;28;20102;-59
2022/10/03 00:30:17;;;;;;;35.83;10.18;;;;;;;22.45;49.86;101898.59;4184136;28;20037;-60
2022/10/03 00:32:51;;;;;;;38.30;9.80;;;;;;;22.67;50.11;101946.72;4188290;28;20036;-60
2022/10/03 00:35:02;;;;;;;34.35;9.45;;;;;;;22.68;49.67;101945.63;4190136;28;20630;-60
2022/10/03 00:37:34;;;;;;;33.25;10.05;;;;;;;22.64;50.21;101952.84;4185334;28;20377;-60
2022/10/03 00:39:49;;;;;;;28.33;7.82;;;;;;;22.69;49.84;101958.47;4180200;28;20037;-60
2022/10/03 00:42:28;;;;;;;30.80;8.63;;;;;;;22.65;49.91;101954.53;4181840;28;20434;-59
2022/10/03 00:44:59;;;;;;;31.15;9.23;;;;;;;22.70;49.91;101953.72;4145042;28;20498;-59
2022/10/03 00:47:36;;;;;;;26.23;7.68;;;;;;;22.47;49.89;101901.97;4181484;28;20097;-59
2022/10/03 00:49:56;;;;;;;33.88;8.00;;;;;;;22.74;49.76;101950.13;4190341;28;20110;-60
2022/10/03 00:52:38;;;;;;;23.80;7.65;;;;;;;22.74;49.64;101955.72;4185408;28;20545;-60
2022/10/03 00:54:42;;;;;;;23.23;7.70;;;;;;;22.78;49.69;101962.44;4162495;28;20102;-60
2022/10/03 00:57:11;;;;;;;26.42;7.43;;;;;;;22.75;49.66;101962.13;4187568;28;20480;-59
2022/10/03 00:59:31;;;;;;;24.60;6.90;;;;;;;22.74;49.57;101961.28;4196877;28;20048;-59
2022/10/03 01:01:43;;;;;;;24.17;6.30;;;;;;;22.75;49.43;101967.72;4198298;28;20040;-59
2022/10/03 01:03:54;;;;;;;26.95;6.47;;;;;;;22.76;49.54;101967.44;4190387;28;20049;-59
2022/10/03 01:06:01;;;;;;;16.45;5.93;;;;;;;22.78;49.29;101970.81;4181140;28;20538;-60
2022/10/03 01:08:24;;;;;;;22.65;6.18;;;;;;;22.77;49.42;101971.94;4192885;28;20041;-60
2022/10/03 01:10:34;;;;;;;19.10;6.25;;;;;;;22.81;49.13;101978.63;4180797;28;20435;-60
2022/10/03 01:12:38;;;;;;;18.73;6.13;;;;;;;22.80;49.10;101992.84;4192012;28;20037;-60
2022/10/03 01:15:04;;;;;;;19.50;6.10;;;;;;;22.80;49.17;101996.47;4181819;28;20044;-60
2022/10/03 01:17:37;;;;;;;15.40;5.45;;;;;;;22.80;48.81;101996.47;4190481;28;20032;-60
2022/10/03 01:20:09;;;;;;;18.08;5.43;;;;;;;22.81;48.92;102000.94;4191681;28;20517;-60
2022/10/03 01:22:41;;;;;;;20.08;5.55;;;;;;;22.84;48.68;102005.16;4180935;28;20049;-60
2022/10/03 01:25:09;;;;;;;20.25;5.47;;;;;;;22.85;48.61;102009.63;4184070;28;20033;-59
2022/10/03 01:27:15;;;;;;;18.90;5.78;;;;;;;22.90;48.59;102014.44;4188492;28;20044;-59
2022/10/03 01:32:39;;;;;;;15.73;5.05;;;;;;;22.87;48.70;102031.72;4185170;28;20094;-61
2022/10/03 01:34:56;;;;;;;17.42;5.03;;;;;;;22.81;48.76;102017.69;4180139;28;20048;-60
2022/10/03 01:37:14;;;;;;;17.08;5.10;;;;;;;22.90;48.41;102025.59;4186111;28;20040;-61
2022/10/03 01:39:46;;;;;;;15.45;5.25;;;;;;;22.91;48.50;102016.13;4197512;28;20545;-60
2022/10/03 01:42:13;;;;;;;13.15;4.50;;;;;;;22.89;48.52;102004.38;4195443;28;20032;-61
2022/10/03 01:44:25;;;;;;;13.55;4.78;;;;;;;22.93;48.53;102019.50;4181368;28;20102;-60
2022/10/03 01:47:11;;;;;;;15.48;4.90;;;;;;;22.92;48.71;102020.63;4190722;28;20434;-59
2022/10/03 01:49:36;;;;;;;14.55;4.38;;;;;;;22.95;48.45;102028.44;4181218;28;20087;-59
2022/10/03 01:51:44;;;;;;;13.13;4.80;;;;;;;22.71;48.30;101978.56;4189767;28;20032;-59
2022/10/03 01:54:07;;;;;;;11.10;3.85;;;;;;;22.94;48.53;102021.19;4196058;28;20044;-60
2022/10/03 01:56:24;;;;;;;17.30;4.63;;;;;;;22.92;48.45;102023.41;4185637;28;20447;-59
2022/10/03 01:58:55;;;;;;;13.60;4.43;;;;;;;22.93;48.01;102036.25;4181133;28;20078;-59
2022/10/03 02:01:06;;;;;;;14.48;4.53;;;;;;;22.97;48.21;102048.56;4182701;28;20091;-60
2022/10/03 02:03:34;;;;;;;11.02;3.63;;;;;;;22.91;48.34;102038.44;4180147;28;20434;-60
2022/10/03 02:06:08;;;;;;;13.85;3.88;;;;;;;22.93;48.25;102053.00;4186929;28;20045;-59
2022/10/03 02:08:48;;;;;;;16.48;4.72;;;;;;;22.89;48.61;102040.66;4191879;28;20106;-60
2022/10/03 02:10:58;;;;;;;11.52;4.00;;;;;;;22.93;48.17;102041.81;4147388;28;20480;-59
2022/10/03 02:13:29;;;;;;;9.77;3.63;;;;;;;22.94;48.15;102049.91;4185267;28;20037;-60
2022/10/03 02:15:39;;;;;;;8.35;3.22;;;;;;;22.89;47.93;102035.06;4168034;28;20091;-61
2022/10/03 02:17:57;;;;;;;8.82;3.20;;;;;;;22.88;48.42;102039.81;4192486;28;20438;-59
2022/10/03 02:20:22;;;;;;;7.75;3.25;;;;;;;22.90;47.67;102034.81;4193049;28;20044;-60
2022/10/03 02:22:35;;;;;;;9.50;2.95;;;;;;;22.93;48.07;102027.88;4185405;28;20446;-58
2022/10/03 02:24:36;;;;;;;6.28;2.63;;;;;;;22.96;47.72;102024.56;4191070;28;20041;-60
2022/10/03 02:26:43;;;;;;;11.77;3.53;;;;;;;22.96;47.48;102018.97;4183024;28;20037;-60
2022/10/03 02:29:23;;;;;;;11.00;3.50;;;;;;;22.87;47.73;102001.84;4185520;28;20492;-60
2022/10/03 02:31:55;;;;;;;9.77;3.28;;;;;;;22.96;47.52;102018.97;4148401;28;20036;-60
2022/10/03 02:34:23;;;;;;;7.20;2.58;;;;;;;22.96;47.80;102013.38;4181934;28;20068;-60
2022/10/03 02:36:39;;;;;;;9.38;3.15;;;;;;;22.97;47.45;102004.72;4195047;28;20565;-61
2022/10/03 02:39:03;;;;;;;6.65;3.00;;;;;;;22.96;47.72;102002.22;4195001;28;20044;-59
2022/10/03 02:41:23;;;;;;;8.38;2.92;;;;;;;22.95;47.69;102014.47;4169710;28;20083;-60
2022/10/03 02:44:02;;;;;;;6.57;2.80;;;;;;;22.95;47.78;102003.31;4184224;28;20040;-60
2022/10/03 02:46:06;;;;;;;8.07;2.70;;;;;;;22.98;47.58;102016.75;4192333;28;20036;-59
2022/10/03 02:48:31;;;;;;;8.20;2.60;;;;;;;22.95;47.67;102022.84;4200313;28;20040;-60
2022/10/03 02:50:54;;;;;;;7.63;2.47;;;;;;;22.95;47.85;102023.69;4198232;28;20080;-59
2022/10/03 02:53:13;;;;;;;10.32;2.85;;;;;;;22.96;47.56;102017.03;4191767;28;20045;-60
2022/10/03 02:56:05;;;;;;;12.13;3.97;;;;;;;23.00;47.46;102022.88;4184425;28;20102;-59
2022/10/03 02:58:34;;;;;;;6.00;2.28;;;;;;;23.03;47.10;102025.13;4150127;28;20049;-59
2022/10/03 03:01:06;;;;;;;7.65;2.75;;;;;;;23.03;47.19;102033.53;4186730;28;20041;-59
2022/10/03 03:03:34;;;;;;;6.72;2.80;;;;;;;23.04;47.13;102030.44;4212219;28;20048;-60
2022/10/03 03:06:05;;;;;;;7.50;2.33;;;;;;;23.02;47.23;102034.63;4216485;28;20446;-60
2022/10/03 03:08:27;;;;;;;5.68;2.35;;;;;;;23.03;46.98;102033.53;4216559;28;20101;-60
2022/10/03 03:10:50;;;;;;;7.15;2.47;;;;;;;23.02;47.21;102040.22;4216716;28;20437;-59
2022/10/03 03:13:28;;;;;;;8.63;2.33;;;;;;;23.00;47.00;102039.63;4190494;28;20435;-60
2022/10/03 03:15:47;;;;;;;6.78;2.22;;;;;;;23.02;47.06;102045.81;4197905;28;20447;-59
2022/10/03 03:18:03;;;;;;;6.78;2.38;;;;;;;23.00;46.90;102054.44;4183199;28;20045;-60
2022/10/03 03:20:21;;;;;;;6.50;2.80;;;;;;;23.01;47.06;102044.13;4183465;28;20499;-59
2022/10/03 03:22:41;;;;;;;5.60;2.40;;;;;;;22.98;46.79;102047.44;4185481;28;20041;-60
2022/10/03 03:25:09;;;;;;;7.13;2.35;;;;;;;22.69;46.99;102003.13;4198719;28;20036;-60
2022/10/03 03:27:54;;;;;;;6.50;2.30;;;;;;;22.98;47.03;102050.22;4183169;28;20095;-60
2022/10/03 03:30:18;;;;;;;6.93;2.40;;;;;;;22.97;46.99;102048.56;4183345;28;20091;-60
2022/10/03 03:32:34;;;;;;;4.38;2.03;;;;;;;22.99;47.06;102061.13;4183061;28;20086;-60
2022/10/03 03:35:08;;;;;;;6.47;2.40;;;;;;;22.94;47.11;102060.25;4183340;28;20110;-59
2022/10/03 03:37:30;;;;;;;6.80;2.25;;;;;;;22.91;46.89;102046.81;4176470;28;20102;-59
2022/10/03 03:39:43;;;;;;;5.70;2.30;;;;;;;22.97;46.77;102065.31;4209767;28;20422;-59
2022/10/03 03:42:33;;;;;;;5.90;2.00;;;;;;;22.75;47.00;102034.69;4201990;28;20049;-59
2022/10/03 03:44:49;;;;;;;6.68;2.63;;;;;;;22.95;46.83;102067.50;4187692;28;20044;-59
2022/10/03 03:47:22;;;;;;;5.80;2.10;;;;;;;22.96;47.00;102063.63;4183040;28;20443;-60
2022/10/03 03:49:30;;;;;;;7.15;2.50;;;;;;;22.95;46.79;102067.50;4165214;28;20099;-60
2022/10/03 03:52:04;;;;;;;4.35;1.98;;;;;;;22.91;47.08;102067.22;4183035;28;20128;-60
2022/10/03 03:54:40;;;;;;;4.18;1.63;;;;;;;22.91;47.00;102074.72;4181928;28;20090;-59
2022/10/03 03:57:20;;;;;;;6.68;2.22;;;;;;;22.89;46.67;102074.13;4183126;28;20045;-59
2022/10/03 03:59:58;;;;;;;3.10;1.65;;;;;;;22.90;46.90;102084.22;4146381;28;20028;-60
2022/10/03 04:02:08;;;;;;;7.03;2.33;;;;;;;22.91;47.14;102080.31;4183221;28;20041;-59
2022/10/03 04:04:50;;;;;;;4.70;1.95;;;;;;;22.90;46.73;102087.00;4183066;28;20087;-60
2022/10/03 04:07:36;;;;;;;4.22;2.13;;;;;;;22.88;47.20;102086.41;4182770;28;20045;-59
2022/10/03 04:10:05;;;;;;;3.17;1.60;;;;;;;22.87;47.07;102088.38;4182876;28;20044;-60
2022/10/03 04:12:31;;;;;;;7.03;2.15;;;;;;;22.89;46.90;102090.88;4182327;28;20041;-59
2022/10/03 04:14:40;;;;;;;;;;;;;;;22.88;46.84;102089.22;4183290;28;20082;-59
2022/10/03 04:19:48;;;;;;;5.72;2.13;;;;;;;22.89;46.75;102090.88;4193215;28;20102;-59
2022/10/03 04:22:10;;;;;;;7.45;2.13;;;;;;;22.89;46.81;102091.75;4131126;28;20093;-59
2022/10/03 04:24:44;;;;;;;4.95;1.80;;;;;;;22.74;46.54;102067.34;4131260;28;20512;-60
2022/10/03 04:26:58;;;;;;;5.75;1.77;;;;;;;22.85;46.74;102093.38;4170868;28;20094;-60
2022/10/03 04:29:47;;;;;;;4.50;1.73;;;;;;;22.82;46.87;102079.97;4182406;28;20492;-60
2022/10/03 04:32:16;;;;;;;3.58;1.50;;;;;;;22.64;46.75;102058.88;4164776;28;20045;-60
2022/10/03 04:34:41;;;;;;;2.95;1.63;;;;;;;22.80;46.89;102096.94;4182261;28;20110;-59
2022/10/03 04:37:05;;;;;;;4.95;1.70;;;;;;;22.78;46.86;102084.38;4182434;28;20045;-59
2022/10/03 04:39:37;;;;;;;6.68;2.72;;;;;;;22.78;46.78;102079.66;4201897;28;20097;-59
2022/10/03 04:42:14;;;;;;;5.72;1.73;;;;;;;22.77;46.53;102066.81;4192686;28;20044;-59
2022/10/03 04:44:30;;;;;;;5.55;1.80;;;;;;;22.77;46.55;102064.00;4182242;28;20037;-60
2022/10/03 04:46:34;;;;;;;3.28;1.45;;;;;;;22.78;46.84;102074.06;4190738;28;20037;-59
2022/10/03 04:48:45;;;;;;;4.05;2.22;;;;;;;22.76;46.93;102076.25;4182011;28;20542;-59
2022/10/03 04:51:03;;;;;;;3.35;1.75;;;;;;;22.75;46.50;102079.31;4181633;28;20108;-59
2022/10/03 04:53:07;;;;;;;3.45;1.50;;;;;;;22.77;46.58;102082.69;4181886;28;20553;-59
2022/10/03 04:55:29;;;;;;;2.75;1.52;;;;;;;22.74;46.77;102066.50;4182049;28;20041;-59
2022/10/03 04:57:49;;;;;;;4.32;1.60;;;;;;;22.75;46.57;102066.22;4182026;28;20033;-59
2022/10/03 05:00:22;;;;;;;3.00;1.55;;;;;;;22.74;46.46;102067.34;4182075;28;20435;-59
2022/10/03 05:02:55;;;;;;;4.40;1.63;;;;;;;22.75;46.70;102060.63;4181594;28;20538;-60
2022/10/03 05:05:26;;;;;;;3.70;1.60;;;;;;;22.73;46.86;102053.66;4169745;28;20052;-59
2022/10/03 05:08:04;;;;;;;2.20;1.38;;;;;;;22.73;46.69;102062.88;4181193;28;20102;-60
2022/10/03 05:10:27;;;;;;;2.22;1.60;;;;;;;22.66;46.67;102053.88;4182059;28;20094;-59
2022/10/03 05:12:49;;;;;;;3.47;1.52;;;;;;;22.71;46.43;102056.69;4194706;28;20037;-59
2022/10/03 05:15:28;;;;;;;4.53;1.67;;;;;;;22.69;46.81;102058.91;4188596;28;20098;-59
2022/10/03 05:17:36;;;;;;;2.95;1.40;;;;;;;22.73;46.44;102067.59;4198179;28;20438;-60
2022/10/03 05:19:52;;;;;;;1.85;1.00;;;;;;;22.69;46.89;102058.91;4185388;28;20049;-60
2022/10/03 05:22:07;;;;;;;3.75;1.73;;;;;;;22.68;46.68;102068.41;4182111;28;20029;-60
2022/10/03 05:24:29;;;;;;;2.65;1.42;;;;;;;22.66;46.90;102070.59;4181275;28;20041;-59
2022/10/03 05:26:45;;;;;;;2.28;1.17;;;;;;;22.68;46.66;102062.81;4181683;28;20036;-59
2022/10/03 05:29:14;;;;;;;3.10;1.67;;;;;;;22.66;46.75;102061.38;4197665;28;20040;-60
2022/10/03 05:31:45;;;;;;;4.68;1.70;;;;;;;22.66;46.53;102062.22;4206143;28;20036;-60
2022/10/03 05:34:07;;;;;;;2.67;1.20;;;;;;;22.69;46.57;102061.72;4213932;28;20097;-59
2022/10/03 05:36:31;;;;;;;4.13;1.38;;;;;;;22.67;46.81;102055.53;4214008;28;20089;-59
2022/10/03 05:39:19;;;;;;;2.50;1.25;;;;;;;22.64;46.92;102050.50;4214423;28;20078;-59
2022/10/03 05:41:32;;;;;;;2.05;1.08;;;;;;;22.64;46.48;102050.50;4214270;28;20097;-59
2022/10/03 05:43:39;;;;;;;2.72;1.13;;;;;;;22.65;46.83;102052.19;4184338;28;20041;-60
2022/10/03 05:45:47;;;;;;;2.08;1.05;;;;;;;22.65;46.86;102049.41;4181689;28;20040;-59
2022/10/03 05:47:55;;;;;;;2.85;1.35;;;;;;;22.64;46.47;102050.50;4181072;28;20032;-59
2022/10/03 05:50:14;;;;;;;1.85;1.20;;;;;;;22.62;46.97;102041.53;4188605;28;20032;-60
2022/10/03 05:52:40;;;;;;;2.78;1.05;;;;;;;22.62;46.52;102047.13;4197446;28;20033;-59
2022/10/03 05:55:06;;;;;;;2.05;1.15;;;;;;;22.64;46.81;102038.50;4197855;28;20094;-60
2022/10/03 05:57:24;;;;;;;4.97;1.65;;;;;;;22.65;46.65;102040.19;4197810;28;20036;-59
2022/10/03 05:59:47;;;;;;;3.00;1.40;;;;;;;22.62;46.70;102035.97;4197844;28;20501;-59
2022/10/03 06:01:57;;;;;;;3.33;1.48;;;;;;;22.64;46.61;102041.31;4196691;28;20029;-59
2022/10/03 06:04:11;;;;;;;2.00;1.25;;;;;;;22.61;46.70;102034.28;4197655;28;20545;-59
2022/10/03 06:06:47;;;;;;;2.65;1.15;;;;;;;22.63;46.64;102042.38;4197471;28;20049;-60
2022/10/03 06:08:54;;;;;;;4.10;1.33;;;;;;;22.62;46.67;102044.34;4180954;28;20053;-59
2022/10/03 06:11:26;;;;;;;3.88;1.25;;;;;;;22.62;46.70;102043.50;4181097;28;20041;-59
2022/10/03 06:13:51;;;;;;;1.48;1.05;;;;;;;22.57;46.58;102045.13;4180690;28;20131;-59
2022/10/03 06:16:29;;;;;;;3.20;1.35;;;;;;;22.12;46.68;101978.63;4181131;28;20033;-60
2022/10/03 06:18:52;;;;;;;2.08;0.82;;;;;;;22.61;46.75;102053.81;4181003;28;20041;-59
2022/10/03 06:21:27;;;;;;;3.67;1.30;;;;;;;22.61;46.68;102039.88;4180996;28;20111;-60
2022/10/03 06:23:57;;;;;;;2.15;1.10;;;;;;;22.60;46.67;102042.94;4180525;28;20045;-59
2022/10/03 06:26:04;;;;;;;2.25;1.15;;;;;;;22.62;46.75;102049.06;4184245;28;20033;-60
2022/10/03 06:28:43;;;;;;;2.30;1.10;;;;;;;22.57;46.50;102050.72;4197427;28;20060;-60
2022/10/03 06:31:25;;;;;;;2.67;1.13;;;;;;;22.56;46.35;102057.41;4197652;28;20081;-60
2022/10/03 06:33:57;;;;;;;1.70;1.10;;;;;;;22.57;46.46;102061.03;4197104;28;20438;-59
2022/10/03 06:36:28;;;;;;;1.95;0.88;;;;;;;22.53;46.67;102054.31;4196592;28;20110;-59
2022/10/03 06:38:51;;;;;;;1.10;0.90;;;;;;;22.57;46.37;102059.09;4197301;28;20371;-60
2022/10/03 06:41:29;;;;;;;1.45;1.02;;;;;;;22.54;46.60;102059.63;4193382;28;20041;-60
2022/10/03 06:43:58;;;;;;;1.98;1.00;;;;;;;22.54;46.59;102054.06;4182144;28;20037;-59
2022/10/03 06:46:27;;;;;;;3.65;1.13;;;;;;;22.54;46.46;102045.69;4184031;28;20041;-59
2022/10/03 06:49:01;;;;;;;2.20;1.00;;;;;;;22.54;46.56;102050.41;4181253;28;20048;-59
2022/10/03 06:51:27;;;;;;;2.70;1.23;;;;;;;22.52;46.49;102052.63;4192291;28;20106;-59
2022/10/03 06:54:01;;;;;;;2.08;1.13;;;;;;;22.52;46.40;102038.69;4195773;28;20036;-59
2022/10/03 06:56:21;;;;;;;2.03;1.15;;;;;;;22.52;46.59;102035.88;4185515;28;20033;-59
2022/10/03 06:58:57;;;;;;;3.25;1.23;;;;;;;22.51;46.48;102034.22;4180521;28;20095;-59
2022/10/03 07:01:10;;;;;;;;;;;;;;;22.53;46.63;102037.56;4180989;28;20041;-59
2022/10/03 07:03:36;;;;;;;1.45;0.80;;;;;;;22.57;46.38;102027.56;4180378;28;19912;-59
2022/10/03 07:06:04;;;;;;;1.92;0.80;;;;;;;22.54;46.22;102022.50;4180521;28;20086;-59
2022/10/03 07:08:44;;;;;;;1.27;0.98;;;;;;;22.53;46.41;102015.25;4196445;28;20480;-59
2022/10/03 07:10:54;;;;;;;1.95;0.85;;;;;;;22.54;46.31;102017.78;4180286;28;20107;-59
2022/10/03 07:13:17;;;;;;;1.17;1.00;;;;;;;22.51;46.35;102018.31;4179885;28;20091;-59
2022/10/03 07:15:28;;;;;;;1.85;0.80;;;;;;;22.51;46.26;101995.16;4180094;28;20447;-59
2022/10/03 07:17:47;;;;;;;2.88;1.08;;;;;;;22.49;46.45;102005.72;4180137;28;20049;-59
2022/10/03 07:20:42;;;;;;;1.67;1.02;;;;;;;22.46;46.45;102007.13;4180130;28;20083;-59
2022/10/03 07:23:08;;;;;;;1.42;0.88;;;;;;;22.49;46.57;102009.34;4122917;28;20479;-60
2022/10/03 07:25:30;;;;;;;2.03;0.93;;;;;;;22.48;46.37;102002.09;4173893;28;20040;-59
2022/10/03 07:28:01;;;;;;;1.80;0.90;;;;;;;22.48;46.53;101995.69;4185924;28;20057;-60
2022/10/03 07:30:22;;;;;;;1.13;0.73;;;;;;;22.44;46.30;101988.94;4192417;28;20045;-60
2022/10/03 07:33:02;;;;;;;1.38;0.70;;;;;;;22.47;46.66;102002.38;4190926;28;20426;-58
2022/10/03 07:35:22;;;;;;;1.48;0.88;;;;;;;22.46;46.24;101992.34;4150728;28;20138;-59
2022/10/03 07:40:20;;;;;;;1.40;0.68;;;;;;;22.45;46.33;101991.50;4186887;28;20541;-59
2022/10/03 07:42:51;;;;;;;1.98;0.88;;;;;;;22.45;46.47;102001.78;4199652;28;20040;-59
2022/10/03 07:45:18;;;;;;;1.55;0.93;;;;;;;22.41;46.31;102018.22;4198755;28;20045;-59
2022/10/03 07:47:52;;;;;;;2.15;1.05;;;;;;;22.44;46.26;102025.22;4199795;28;20081;-59
2022/10/03 07:50:31;;;;;;;2.08;0.93;;;;;;;22.43;46.41;102026.31;4183967;28;20443;-59
2022/10/03 07:52:53;;;;;;;1.65;0.77;;;;;;;22.45;46.35;102012.94;4184220;28;20090;-59
2022/10/03 07:55:30;;;;;;;1.27;0.73;;;;;;;22.15;46.48;101969.75;4182769;28;20033;-59
2022/10/03 07:57:39;;;;;;;;;;;;;;;22.43;46.16;102015.16;4132305;28;20050;-60
2022/10/03 08:00:12;;;;;;;1.73;0.95;;;;;;;22.46;46.40;102011.84;4183703;28;19913;-60
2022/10/03 08:02:49;;;;;;;1.67;0.90;;;;;;;22.45;46.12;102012.94;4181710;28;20373;-59
2022/10/03 08:05:05;;;;;;;1.73;0.90;;;;;;;22.44;46.06;102000.94;4182157;28;20094;-59
2022/10/03 08:07:40;;;;;;;0.77;0.60;;;;;;;22.40;46.26;102004.53;4182627;28;20373;-59
2022/10/03 08:10:18;;;;;;;0.98;0.60;;;;;;;22.40;46.13;102010.09;4182053;28;20063;-59
2022/10/03 08:12:40;;;;;;;1.02;0.73;;;;;;;22.41;46.32;102014.59;4185190;28;20048;-59
2022/10/03 08:15:20;;;;;;;1.15;0.82;;;;;;;22.38;45.99;102006.75;4193718;28;20037;-59
2022/10/03 08:17:39;;;;;;;0.60;0.50;;;;;;;22.40;46.19;102010.09;4183814;28;20496;-60
2022/10/03 08:19:43;;;;;;;0.85;0.63;;;;;;;22.39;46.32;102008.44;4190045;28;20376;-59
2022/10/03 08:22:13;;;;;;;1.80;0.60;;;;;;;22.37;46.18;102005.91;4182360;28;20079;-59
2022/10/03 08:24:33;;;;;;;2.28;0.90;;;;;;;22.36;46.16;101998.66;4182932;28;20045;-59
2022/10/03 08:26:38;;;;;;;2.05;0.80;;;;;;;22.38;46.04;102003.97;4199153;28;20044;-59
2022/10/03 08:29:17;;;;;;;1.15;0.70;;;;;;;22.34;46.50;102006.44;4186859;28;20377;-59
2022/10/03 08:31:47;;;;;;;0.98;0.55;;;;;;;22.34;46.25;102006.44;4198109;28;20110;-59
2022/10/03 08:34:12;;;;;;;1.42;0.60;;;;;;;22.37;46.16;102005.09;4186299;28;20033;-59
2022/10/03 08:36:51;;;;;;;2.65;0.70;;;;;;;22.32;46.30;102001.13;4182366;28;20077;-60
2022/10/03 08:39:10;;;;;;;0.77;0.50;;;;;;;22.36;46.28;102006.16;4185197;28;20049;-60
2022/10/03 08:41:39;;;;;;;1.08;0.63;;;;;;;22.31;46.19;102007.81;4181348;28;20049;-59
2022/10/03 08:44:15;;;;;;;2.10;0.80;;;;;;;22.32;46.25;102023.44;4182337;28;20041;-59
2022/10/03 08:46:37;;;;;;;1.02;0.80;;;;;;;22.34;46.28;102017.59;4172167;28;20074;-59
2022/10/03 08:49:16;;;;;;;1.88;0.70;;;;;;;22.31;46.23;102024.56;4182177;28;20025;-59
2022/10/03 08:51:32;;;;;;;0.70;0.57;;;;;;;22.34;46.15;102017.59;4184633;28;20036;-59
2022/10/03 08:54:15;;;;;;;1.40;0.75;;;;;;;22.29;46.16;102021.19;4181847;28;20150;-58
2022/10/03 08:56:31;;;;;;;1.15;0.70;;;;;;;22.31;46.25;102024.56;4153615;28;20099;-59
2022/10/03 08:59:09;;;;;;;1.75;0.60;;;;;;;22.28;46.14;102016.72;4181832;28;20041;-60
2022/10/03 09:01:30;;;;;;;0.70;0.47;;;;;;;22.30;46.26;102028.44;4182008;28;20090;-59
2022/10/03 09:04:09;;;;;;;0.73;0.50;;;;;;;22.28;46.50;102030.66;4189226;28;20029;-60
2022/10/03 09:06:59;;;;;;;0.70;0.40;;;;;;;22.15;46.22;102003.19;4198033;28;20208;-60
2022/10/03 09:09:06;;;;;;;0.80;0.60;;;;;;;22.31;46.47;102035.72;4187604;28;20122;-60
2022/10/03 09:11:48;;;;;;;3.03;0.90;;;;;;;22.27;46.41;102040.13;4182083;28;20083;-59
2022/10/03 09:14:26;;;;;;;1.02;0.50;;;;;;;22.28;46.44;102035.41;4181909;28;20114;-59
2022/10/03 09:16:33;;;;;;;0.50;0.40;;;;;;;22.30;46.50;102045.16;4181852;28;20033;-59
2022/10/03 09:19:02;;;;;;;1.10;0.73;;;;;;;22.29;46.13;102037.06;4181750;28;20071;-60
2022/10/03 09:21:43;;;;;;;0.82;0.60;;;;;;;22.10;46.59;102005.91;4181828;28;20041;-59
2022/10/03 09:24:17;;;;;;;0.65;0.60;;;;;;;22.22;46.48;102009.41;4181696;28;20110;-59
2022/10/03 09:26:45;;;;;;;0.80;0.63;;;;;;;22.28;46.12;102027.88;4182247;28;20045;-60
2022/10/03 09:28:53;;;;;;;0.75;0.60;;;;;;;22.28;46.46;102013.91;4181566;28;20086;-59
2022/10/03 09:31:15;;;;;;;1.27;0.52;;;;;;;22.26;46.40;102016.13;4181763;28;20029;-59
2022/10/03 09:33:54;;;;;;;1.08;0.57;;;;;;;22.25;46.44;102019.19;4181259;28;20366;-59
2022/10/03 09:36:31;;;;;;;0.77;0.75;;;;;;;22.25;46.41;102030.34;4161553;28;20045;-59
2022/10/03 09:39:10;;;;;;;0.85;0.50;;;;;;;22.24;46.20;102023.91;4184033;28;20090;-59
2022/10/03 09:41:27;;;;;;;1.17;0.52;;;;;;;22.27;46.48;102023.41;4180934;28;20057;-59
2022/10/03 09:44:02;;;;;;;0.82;0.60;;;;;;;22.23;46.36;102025.03;4180660;28;20107;-59
2022/10/03 09:46:24;;;;;;;0.88;0.50;;;;;;;22.25;46.07;102019.19;4187791;28;20099;-59
2022/10/03 09:48:57;;;;;;;0.93;0.60;;;;;;;22.24;46.27;102025.88;4188204;28;20041;-59
2022/10/03 09:51:32;;;;;;;0.60;0.45;;;;;;;22.22;46.41;102031.72;4184328;28;20056;-59
2022/10/03 09:54:05;;;;;;;1.00;0.50;;;;;;;22.16;46.41;102021.59;4172996;28;20099;-59
2022/10/03 09:56:12;;;;;;;0.63;0.60;;;;;;;22.25;46.13;102031.16;4180838;28;20041;-59
2022/10/03 09:58:50;;;;;;;0.47;0.40;;;;;;;22.21;46.07;102041.16;4181682;28;20041;-59
2022/10/03 10:01:20;;;;;;;0.43;0.40;;;;;;;22.23;45.94;102050.13;4180634;28;20102;-59
2022/10/03 10:03:46;;;;;;;1.58;0.63;;;;;;;22.20;46.41;102050.63;4176494;28;20033;-58
2022/10/03 10:06:17;;;;;;;0.60;0.52;;;;;;;22.20;46.18;102067.38;4179879;28;20166;-60
2022/10/03 10:08:31;;;;;;;0.70;0.40;;;;;;;22.20;46.00;102067.38;4180763;28;20056;-60
2022/10/03 10:11:14;;;;;;;1.00;0.60;;;;;;;22.15;46.25;102070.09;4180607;28;20518;-59
2022/10/03 10:13:46;;;;;;;0.73;0.40;;;;;;;22.20;46.10;102084.09;4179597;28;20045;-60
2022/10/03 10:15:56;;;;;;;0.50;0.50;;;;;;;22.21;45.99;102082.97;4183929;28;20044;-60
2022/10/03 10:18:21;;;;;;;0.40;0.40;;;;;;;22.18;45.98;102086.31;4180221;28;20484;-60
2022/10/03 10:20:47;;;;;;;0.77;0.50;;;;;;;22.17;46.05;102086.56;4180515;28;20033;-59
2022/10/03 10:23:25;;;;;;;1.10;0.38;;;;;;;22.12;46.28;102065.03;4192518;28;20476;-60
2022/10/03 10:25:51;;;;;;;0.52;0.40;;;;;;;21.95;46.10;102065.13;4196352;28;20041;-60
2022/10/03 10:28:01;;;;;;;0.77;0.40;;;;;;;22.18;46.28;102099.41;4183774;28;20048;-60
2022/10/03 10:30:14;;;;;;;1.77;0.70;;;;;;;22.19;46.07;102104.72;4179989;28;20488;-60
2022/10/03 10:32:27;;;;;;;0.45;0.32;;;;;;;22.17;46.09;102117.22;4191495;28;20044;-61
2022/10/03 10:34:56;;;;;;;0.73;0.57;;;;;;;22.16;46.03;102121.97;4195031;28;20036;-59
2022/10/03 10:37:43;;;;;;;0.82;0.60;;;;;;;22.15;46.22;102120.28;4185936;28;20041;-59
2022/10/03 10:40:04;;;;;;;0.50;0.50;;;;;;;22.15;45.91;102109.13;4156453;28;20079;-59
2022/10/03 10:42:17;;;;;;;0.40;0.40;;;;;;;22.17;46.13;102118.06;4180453;28;20104;-59
2022/10/03 10:44:58;;;;;;;0.95;0.52;;;;;;;22.15;46.21;102120.28;4183093;28;20139;-59
2022/10/03 10:47:26;;;;;;;0.45;0.40;;;;;;;22.14;45.86;102128.91;4182198;28;20033;-59
2022/10/03 10:49:52;;;;;;;0.40;0.40;;;;;;;22.15;46.18;102137.00;4186596;28;20384;-59
2022/10/03 10:52:21;;;;;;;0.80;0.40;;;;;;;22.02;46.15;102109.50;4180473;28;20037;-59
2022/10/03 10:54:43;;;;;;;0.30;0.30;;;;;;;22.15;46.03;102125.03;4192759;28;20037;-59
2022/10/03 10:57:14;;;;;;;0.52;0.47;;;;;;;22.14;46.08;102113.03;4197279;28;20041;-59
2022/10/03 10:59:56;;;;;;;0.65;0.52;;;;;;;22.12;45.86;102118.00;4197251;28;20048;-59
2022/10/03 11:02:06;;;;;;;1.13;0.60;;;;;;;22.12;45.99;102106.84;4181141;28;20122;-58
2022/10/03 11:04:52;;;;;;;0.40;0.40;;;;;;;22.09;46.14;102099.00;4182291;28;20042;-59
2022/10/03 11:07:24;;;;;;;0.40;0.30;;;;;;;22.10;45.93;102086.75;4159570;28;20045;-59
2022/10/03 11:09:43;;;;;;;0.55;0.40;;;;;;;22.10;46.01;102094.28;4186538;28;20063;-59
2022/10/03 11:12:23;;;;;;;0.63;0.63;;;;;;;22.08;45.94;102070.28;4196811;28;20048;-58
2022/10/03 11:14:52;;;;;;;0.80;0.63;;;;;;;22.10;45.83;102072.81;4193091;28;20111;-59
2022/10/03 11:17:31;;;;;;;0.40;0.40;;;;;;;22.08;46.12;102073.06;4194470;28;20041;-59
2022/10/03 11:19:37;;;;;;;0.55;0.40;;;;;;;22.11;45.81;102076.44;4200045;28;20094;-59
2022/10/03 11:22:04;;;;;;;1.80;0.40;;;;;;;22.10;45.73;102067.22;4190856;28;20044;-59
2022/10/03 11:24:33;;;;;;;0.30;0.30;;;;;;;22.07;46.01;102068.59;4182648;28;20099;-59